Winslow, Nebraska
Current Conditions -  °F | °C
As of 2:35 AM on Saturday 20 Dec 2014 (Local Time) from KFET Reporting Station
Haze Haze  
Wind Chill: 28°   Ceiling: 400
Heat Index: 32°   Visibility: 2mi
Dew Point: 32°   Wind: 5mph
Humidity: 99%   Direction: 140°SE
Pressure: 30.11"   Gusts: NA
Location:  41.61°N, 96.5°W
Report Text: KFET 200835Z AUTO 14004KT 2SM BR OVC004 00/00 A3011 RMK AO2 T00020000
Loading
Personal Weather Stations






























Interactive Weather Map New forecast layout! Learn more

10-Day Weather Forecast

Advertisements
Track Severe Weather on mobile